Time;durP1;ratioP1;P1;durP2;ratioP2;P2;SDS_P1;SDS_P2;PMS_P1;PMS_P2;Temp;Humidity;BMP_temperature;BMP_pressure;BME280_temperature;BME280_humidity;BME280_pressure;Samples;Min_cycle;Max_cycle;Signal;HPM_P1;HPM_P2
2022/06/13 00:00:32;;;;;;;5.22;2.97;;;;;;;15.96;72.76;102137.41;4904361;29;20111;-78
2022/06/13 00:02:59;;;;;;;9.48;3.10;;;;;;;15.95;73.07;102140.94;4896796;29;20043;-79
2022/06/13 00:05:25;;;;;;;7.65;3.30;;;;;;;15.95;73.29;102139.16;4914903;29;20215;-79
2022/06/13 00:07:51;;;;;;;7.15;2.75;;;;;;;15.95;73.28;102130.38;4896999;29;20032;-79
2022/06/13 00:10:16;;;;;;;6.78;2.63;;;;;;;15.93;73.19;102127.81;4901194;29;20175;-78
2022/06/13 00:12:43;;;;;;;9.13;3.17;;;;;;;15.95;73.47;102127.75;4897477;29;20044;-79
2022/06/13 00:15:10;;;;;;;4.75;3.17;;;;;;;15.94;73.79;102129.53;4909215;29;20085;-78
2022/06/13 00:17:36;;;;;;;5.57;2.97;;;;;;;15.93;74.01;102125.16;4905245;29;20220;-78
2022/06/13 00:20:03;;;;;;;9.60;3.00;;;;;;;15.93;74.32;102120.75;4904783;29;20047;-78
2022/06/13 00:22:28;;;;;;;7.05;3.35;;;;;;;15.92;74.39;102126.09;4896560;29;20043;-79
2022/06/13 00:24:54;;;;;;;9.20;3.00;;;;;;;15.91;74.69;102125.22;4913993;29;20092;-79
2022/06/13 00:27:19;;;;;;;5.95;3.15;;;;;;;15.91;74.83;102124.38;4889233;29;20064;-79
2022/06/13 00:29:47;;;;;;;5.60;2.60;;;;;;;15.89;74.47;102119.16;4920728;29;20039;-78
2022/06/13 00:32:13;;;;;;;3.85;2.53;;;;;;;15.89;74.58;102121.78;4909308;29;20048;-79
2022/06/13 00:34:39;;;;;;;11.25;3.53;;;;;;;15.88;74.65;102128.03;4886324;29;20075;-78
2022/06/13 00:37:05;;;;;;;10.15;3.13;;;;;;;15.90;74.54;102122.69;4903254;29;20227;-78
2022/06/13 00:39:30;;;;;;;10.13;3.47;;;;;;;15.88;74.72;102125.38;4899653;29;20035;-78
2022/06/13 00:41:56;;;;;;;10.73;2.95;;;;;;;15.89;74.68;102126.22;4901535;29;20307;-79
2022/06/13 00:44:37;;;;;;;11.23;3.13;;;;;;;15.88;75.11;102122.72;4909674;29;20320;-78
2022/06/13 00:47:03;;;;;;;9.18;3.38;;;;;;;15.88;75.38;102124.50;4894995;29;20036;-78
2022/06/13 00:49:42;;;;;;;6.60;3.38;;;;;;;15.89;75.69;102126.22;4896595;29;20104;-78
2022/06/13 00:52:20;;;;;;;9.18;3.45;;;;;;;15.87;75.24;102117.50;4899913;29;20201;-79
2022/06/13 00:54:49;;;;;;;7.53;2.63;;;;;;;15.86;75.50;102119.31;4916585;29;20206;-78
2022/06/13 00:57:27;;;;;;;9.18;3.40;;;;;;;15.86;75.70;102111.38;4894339;29;20052;-78
2022/06/13 01:00:04;;;;;;;9.83;2.87;;;;;;;15.87;75.48;102112.22;4903282;29;20056;-78
2022/06/13 01:02:30;;;;;;;10.98;3.40;;;;;;;15.86;75.48;102114.03;4912484;29;20319;-78
2022/06/13 01:04:57;;;;;;;7.20;3.05;;;;;;;15.87;75.35;102114.88;4920878;29;20319;-78
2022/06/13 01:07:23;;;;;;;6.05;2.80;;;;;;;15.86;75.57;102111.38;4885151;29;20033;-78
2022/06/13 01:12:36;;;;;;;8.55;3.25;;;;;;;15.85;75.54;102114.94;4914419;29;20051;-79
2022/06/13 01:15:17;;;;;;;7.30;2.85;;;;;;;15.85;75.67;102117.56;4903223;29;20035;-78
2022/06/13 01:18:00;;;;;;;8.20;2.75;;;;;;;15.85;75.31;102108.78;4901012;29;20028;-79
2022/06/13 01:20:34;;;;;;;11.73;3.30;;;;;;;15.85;75.59;102109.66;4902422;29;20092;-78
2022/06/13 01:23:32;;;;;;;12.77;3.53;;;;;;;15.85;75.95;102108.78;4904718;29;20043;-78
2022/06/13 01:26:06;;;;;;;8.97;2.80;;;;;;;15.85;75.50;102114.94;4921980;29;20036;-78
2022/06/13 01:28:56;;;;;;;6.40;2.67;;;;;;;15.84;75.61;102102.63;4908337;29;20043;-78
2022/06/13 01:31:27;;;;;;;8.75;3.60;;;;;;;15.84;75.86;102107.91;4905883;29;20048;-79
2022/06/13 01:34:03;;;;;;;10.43;3.70;;;;;;;15.84;76.08;102109.72;4906316;29;20063;-79
2022/06/13 01:37:02;;;;;;;10.07;3.42;;;;;;;15.84;76.13;102113.19;4913587;29;20402;-79
2022/06/13 01:39:50;;;;;;;9.70;3.95;;;;;;;15.84;76.38;102112.34;4923541;29;20374;-78
2022/06/13 01:42:44;;;;;;;7.72;3.10;;;;;;;15.84;76.46;102117.63;4914260;29;20063;-79
2022/06/13 01:45:41;;;;;;;12.05;3.88;;;;;;;15.84;76.33;102121.13;4892880;29;20036;-78
2022/06/13 01:48:41;;;;;;;13.77;4.28;;;;;;;15.82;76.51;102117.69;4902165;29;20037;-78
2022/06/13 01:51:12;;;;;;;13.13;4.15;;;;;;;15.83;76.68;102121.22;4902495;29;20045;-78
2022/06/13 01:53:50;;;;;;;10.20;3.60;;;;;;;15.82;76.79;102120.34;4915530;29;20040;-78
2022/06/13 01:56:19;;;;;;;10.23;3.55;;;;;;;15.82;76.54;102122.13;4902572;29;20021;-78
2022/06/13 01:59:10;;;;;;;14.38;4.78;;;;;;;15.82;76.46;102125.63;4907625;29;20032;-78
2022/06/13 02:01:45;;;;;;;12.18;4.75;;;;;;;15.82;76.93;102115.06;4911710;29;20216;-78
2022/06/13 02:04:26;;;;;;;13.82;5.30;;;;;;;15.81;76.97;102118.63;4890303;29;20036;-79
2022/06/13 02:07:02;;;;;;;11.18;4.65;;;;;;;15.80;77.13;102116.91;4905273;29;20048;-79
2022/06/13 02:09:33;;;;;;;8.35;4.45;;;;;;;15.80;77.11;102114.25;4897170;29;20331;-78
2022/06/13 02:11:59;;;;;;;10.40;4.35;;;;;;;15.80;77.63;102122.19;4910566;29;20039;-79
2022/06/13 02:14:43;;;;;;;17.45;4.93;;;;;;;15.81;77.25;102128.31;4902802;29;20039;-79
2022/06/13 02:17:21;;;;;;;16.05;4.88;;;;;;;15.80;77.97;102121.34;4911896;29;20311;-78
2022/06/13 02:20:02;;;;;;;13.40;4.97;;;;;;;15.79;77.92;102114.31;4909002;29;20046;-78
2022/06/13 02:22:35;;;;;;;15.63;5.53;;;;;;;15.78;77.60;102118.75;4905642;29;20044;-79
2022/06/13 02:25:21;;;;;;;20.02;5.32;;;;;;;15.78;77.37;102121.41;4900933;29;20052;-78
2022/06/13 02:27:55;;;;;;;11.23;4.55;;;;;;;15.78;77.45;102123.19;4896443;29;20058;-79
2022/06/13 02:30:29;;;;;;;13.50;5.03;;;;;;;15.78;77.40;102123.19;4914238;29;20029;-79
2022/06/13 02:33:12;;;;;;;12.27;5.85;;;;;;;15.78;77.54;102123.19;4900035;29;20035;-79
2022/06/13 02:35:48;;;;;;;13.00;5.03;;;;;;;15.78;77.68;102112.63;4916388;29;20028;-79
2022/06/13 02:38:27;;;;;;;17.80;5.43;;;;;;;15.77;77.78;102117.06;4917513;29;20068;-79
2022/06/13 02:40:58;;;;;;;13.48;4.80;;;;;;;15.76;77.60;102123.25;4899743;29;20036;-80
2022/06/13 02:43:26;;;;;;;11.05;4.13;;;;;;;15.76;77.31;102122.41;4910828;29;20039;-80
2022/06/13 02:46:00;;;;;;;10.10;3.75;;;;;;;15.74;76.97;102114.53;4908427;29;20054;-79
2022/06/13 02:48:34;;;;;;;7.88;2.90;;;;;;;15.74;76.71;102118.03;4897833;29;20083;-79
2022/06/13 02:51:23;;;;;;;7.07;2.95;;;;;;;15.73;76.28;102116.28;4891904;29;20028;-79
2022/06/13 02:53:57;;;;;;;7.47;3.15;;;;;;;15.73;76.33;102121.56;4912767;29;20039;-79
2022/06/13 02:56:37;;;;;;;8.82;3.45;;;;;;;15.73;75.74;102124.22;4919309;29;20035;-79
2022/06/13 02:59:27;;;;;;;7.32;2.17;;;;;;;15.71;75.06;102120.75;4900629;29;20032;-79
2022/06/13 03:01:56;;;;;;;4.28;2.22;;;;;;;15.70;75.06;102128.75;4906300;29;20074;-79
2022/06/13 03:04:40;;;;;;;5.95;2.78;;;;;;;15.70;74.90;102131.41;4885773;29;20071;-79
2022/06/13 03:07:16;;;;;;;6.03;2.75;;;;;;;15.67;73.82;102135.00;4902011;29;20232;-79
2022/06/13 03:09:55;;;;;;;4.18;1.95;;;;;;;15.64;73.50;102137.78;4909069;29;20048;-80
2022/06/13 03:12:45;;;;;;;5.88;2.05;;;;;;;15.62;73.25;102134.34;4909975;29;20453;-80
2022/06/13 03:15:22;;;;;;;6.38;2.70;;;;;;;15.61;72.83;102135.28;4913361;29;20080;-79
2022/06/13 03:18:04;;;;;;;5.20;2.17;;;;;;;15.59;72.51;102142.41;4900680;29;20044;-79
2022/06/13 03:20:48;;;;;;;4.45;1.80;;;;;;;15.58;72.72;102145.97;4900915;29;20032;-80
2022/06/13 03:23:42;;;;;;;5.43;2.33;;;;;;;15.54;71.87;102142.59;4915465;29;20048;-80
2022/06/13 03:26:19;;;;;;;4.65;1.63;;;;;;;15.55;72.32;102146.97;4911023;29;20052;-80
2022/06/13 03:28:52;;;;;;;9.10;2.92;;;;;;;15.53;72.56;102154.09;4918830;29;20099;-79
2022/06/13 03:31:30;;;;;;;4.85;1.83;;;;;;;15.54;72.25;102147.88;4902539;29;20107;-79
2022/06/13 03:34:00;;;;;;;5.60;2.00;;;;;;;15.54;72.31;102147.00;4903077;29;20315;-80
2022/06/13 03:36:35;;;;;;;3.92;1.92;;;;;;;15.53;72.12;102147.94;4900584;29;20051;-80
2022/06/13 03:39:16;;;;;;;4.80;1.83;;;;;;;15.52;71.83;102151.50;4901750;29;20320;-79
2022/06/13 03:41:58;;;;;;;3.38;1.83;;;;;;;15.50;72.14;102159.47;4892767;29;20383;-79
2022/06/13 03:44:30;;;;;;;6.05;2.05;;;;;;;15.49;71.85;102154.25;4902457;29;20049;-79
2022/06/13 03:46:59;;;;;;;4.38;2.20;;;;;;;15.47;71.76;102153.47;4907228;29;20084;-79
2022/06/13 03:49:38;;;;;;;4.97;1.90;;;;;;;15.46;71.73;102159.66;4901499;29;20219;-80
2022/06/13 03:52:08;;;;;;;5.30;1.85;;;;;;;15.45;71.25;102160.59;4892482;29;20034;-79
2022/06/13 03:54:43;;;;;;;2.95;1.70;;;;;;;15.42;70.80;102164.19;4906817;29;20067;-79
2022/06/13 03:57:31;;;;;;;4.43;2.15;;;;;;;15.40;70.29;102159.91;4898349;29;20688;-79
2022/06/13 04:00:08;;;;;;;5.35;1.95;;;;;;;15.37;69.90;102176.72;4902314;29;20146;-79
2022/06/13 04:02:38;;;;;;;6.55;1.65;;;;;;;15.35;69.95;102168.88;4924286;29;20216;-79
2022/06/13 04:05:04;;;;;;;3.58;1.27;;;;;;;15.34;69.70;102171.56;4909970;29;20188;-80
2022/06/13 04:07:35;;;;;;;4.85;1.50;;;;;;;15.30;69.22;102176.13;4912704;29;20374;-79
2022/06/13 04:10:06;;;;;;;3.25;1.63;;;;;;;15.30;69.40;102175.25;4909614;29;20032;-80
2022/06/13 04:13:00;;;;;;;2.83;1.30;;;;;;;15.27;69.26;102167.47;4906227;29;20102;-79
2022/06/13 04:15:46;;;;;;;5.03;1.65;;;;;;;15.27;69.77;102172.72;4908966;29;20380;-79
2022/06/13 04:18:45;;;;;;;4.38;1.65;;;;;;;15.27;70.03;102172.72;4909849;29;20046;-79
2022/06/13 04:21:22;;;;;;;3.67;1.30;;;;;;;15.26;69.57;102173.63;4903807;29;20095;-79
2022/06/13 04:24:04;;;;;;;4.32;1.55;;;;;;;15.23;68.79;102179.91;4881736;29;20028;-79
2022/06/13 04:26:48;;;;;;;2.65;1.50;;;;;;;15.22;68.75;102183.44;4907012;29;20126;-79
2022/06/13 04:29:26;;;;;;;3.33;1.65;;;;;;;15.19;68.39;102173.03;4916079;29;20036;-79
2022/06/13 04:31:55;;;;;;;6.30;1.92;;;;;;;15.20;68.30;102179.16;4902163;29;20048;-79
2022/06/13 04:34:26;;;;;;;5.80;1.38;;;;;;;15.13;67.06;102186.44;4912211;29;20043;-79
2022/06/13 04:36:53;;;;;;;5.20;1.58;;;;;;;15.14;67.98;102183.75;4900594;29;20123;-79
2022/06/13 04:39:24;;;;;;;4.95;1.55;;;;;;;15.12;68.65;102182.97;4912573;29;20116;-79
2022/06/13 04:41:52;;;;;;;5.75;1.50;;;;;;;15.13;68.82;102183.81;4898865;29;20047;-80
2022/06/13 04:44:20;;;;;;;4.83;1.53;;;;;;;15.10;67.87;102184.81;4910291;29;20047;-79
2022/06/13 04:46:48;;;;;;;2.70;0.90;;;;;;;15.10;68.23;102179.53;4910686;29;20040;-79
2022/06/13 04:49:29;;;;;;;9.50;1.45;;;;;;;15.10;68.56;102179.53;4914980;29;20054;-80
2022/06/13 04:51:57;;;;;;;2.85;1.08;;;;;;;15.10;68.56;102184.81;4902787;29;20045;-79
2022/06/13 04:54:33;;;;;;;3.42;1.20;;;;;;;15.09;68.37;102188.34;4899849;29;20296;-79
2022/06/13 04:56:59;;;;;;;4.80;1.50;;;;;;;15.09;68.61;102185.72;4916705;29;20339;-79
2022/06/13 04:59:26;;;;;;;2.38;0.98;;;;;;;15.10;68.38;102189.22;4901566;29;20304;-79
2022/06/13 05:01:51;;;;;;;6.88;1.35;;;;;;;15.09;68.49;102187.50;4906691;29;20115;-80
2022/06/13 05:04:20;;;;;;;4.95;1.65;;;;;;;15.08;68.75;102185.75;4924463;29;20060;-79
2022/06/13 05:06:53;;;;;;;;;;;;;;;15.08;69.46;102198.94;4915504;29;20224;-79
2022/06/13 05:09:41;;;;;;;6.47;1.40;;;;;;;15.08;69.15;102196.31;4900894;29;19926;-79
2022/06/13 05:12:25;;;;;;;8.38;1.67;;;;;;;15.04;69.90;102198.22;4900755;29;20028;-79
2022/06/13 05:15:18;;;;;;;3.28;1.45;;;;;;;15.04;70.09;102200.84;4911033;29;20217;-79
2022/06/13 05:18:02;;;;;;;10.18;1.83;;;;;;;15.02;70.38;102212.38;4904933;29;20043;-80
2022/06/13 05:20:54;;;;;;;7.75;1.60;;;;;;;14.97;70.23;102210.78;4913571;29;20035;-79
2022/06/13 05:23:44;;;;;;;3.33;1.63;;;;;;;14.93;70.31;102219.72;4887823;29;20036;-79
2022/06/13 05:26:10;;;;;;;4.97;1.30;;;;;;;14.92;70.08;102219.78;4901372;29;20079;-80
2022/06/13 05:28:36;;;;;;;3.75;1.20;;;;;;;14.91;70.26;102226.81;4904870;29;20355;-79
2022/06/13 05:31:13;;;;;;;3.85;1.40;;;;;;;14.89;70.34;102241.84;4910767;29;20135;-79
2022/06/13 05:33:41;;;;;;;3.30;1.25;;;;;;;14.88;70.42;102237.50;4906145;29;20150;-80
2022/06/13 05:36:10;;;;;;;7.60;1.50;;;;;;;14.87;69.87;102240.19;4905332;29;20213;-80
2022/06/13 05:38:43;;;;;;;;;;;;;;;14.88;70.07;102245.44;4919646;29;20179;-79
2022/06/13 05:41:09;;;;;;;5.43;1.65;;;;;;;14.87;69.80;102238.41;4896330;29;20214;-80
2022/06/13 05:43:35;;;;;;;3.17;1.10;;;;;;;14.87;69.85;102248.97;4907678;29;20036;-79
2022/06/13 05:46:02;;;;;;;5.80;1.40;;;;;;;14.89;70.36;102247.13;4912486;29;20362;-80
2022/06/13 05:48:27;;;;;;;4.95;1.05;;;;;;;14.91;70.42;102250.56;4907543;29;20072;-79
2022/06/13 05:50:54;;;;;;;3.03;1.20;;;;;;;14.93;70.88;102256.63;4921493;29;20036;-79
2022/06/13 05:53:22;;;;;;;4.30;1.25;;;;;;;14.95;70.41;102254.84;4899160;29;20043;-79
2022/06/13 05:55:49;;;;;;;5.50;1.20;;;;;;;14.94;70.67;102254.88;4914532;29;20025;-79
2022/06/13 05:58:16;;;;;;;5.13;1.15;;;;;;;14.95;70.61;102256.59;4907526;29;20099;-79
2022/06/13 06:00:48;;;;;;;2.28;1.10;;;;;;;14.95;70.36;102260.13;4904289;29;20212;-79
2022/06/13 06:03:14;;;;;;;2.50;1.10;;;;;;;14.95;70.51;102264.50;4900253;29;20271;-79
2022/06/13 06:05:40;;;;;;;6.25;1.00;;;;;;;14.95;70.61;102270.66;4914326;29;20040;-79
2022/06/13 06:08:21;;;;;;;3.10;1.50;;;;;;;14.95;70.29;102268.03;4899771;29;20306;-79
2022/06/13 06:10:49;;;;;;;6.40;1.05;;;;;;;14.95;70.00;102272.41;4907366;29;20231;-79
2022/06/13 06:13:15;;;;;;;7.28;1.75;;;;;;;14.93;70.28;102272.47;4916708;29;20099;-79
2022/06/13 06:15:42;;;;;;;5.35;1.40;;;;;;;14.94;70.56;102276.00;4885288;29;20032;-79
2022/06/13 06:18:08;;;;;;;4.80;1.33;;;;;;;14.97;70.83;102279.38;4903014;29;20040;-79
2022/06/13 06:20:34;;;;;;;4.15;1.20;;;;;;;14.99;71.29;102287.25;4915706;29;20361;-79
2022/06/13 06:23:00;;;;;;;7.95;2.17;;;;;;;14.99;71.21;102292.50;4909536;29;20040;-79
2022/06/13 06:25:25;;;;;;;6.28;1.55;;;;;;;14.97;70.61;102294.31;4909883;29;20052;-79
2022/06/13 06:27:50;;;;;;;5.57;1.05;;;;;;;14.98;70.60;102291.63;4903765;29;20080;-79
2022/06/13 06:30:17;;;;;;;5.68;1.30;;;;;;;14.96;70.88;102298.75;4917046;29;20036;-79
2022/06/13 06:32:44;;;;;;;5.05;1.23;;;;;;;14.96;70.86;102295.25;4907664;29;20051;-79
2022/06/13 06:35:10;;;;;;;3.40;1.20;;;;;;;14.98;70.91;102286.34;4907742;29;20108;-79
2022/06/13 06:37:39;;;;;;;4.50;1.23;;;;;;;14.98;70.62;102285.50;4922203;29;20390;-79
2022/06/13 06:40:05;;;;;;;8.63;2.42;;;;;;;15.00;71.08;102288.09;4902542;29;20130;-79
2022/06/13 06:42:30;;;;;;;10.27;1.33;;;;;;;15.01;71.41;102289.78;4909421;29;20047;-79
2022/06/13 06:44:56;;;;;;;3.20;1.33;;;;;;;14.99;70.25;102287.25;4897091;29;20270;-79
2022/06/13 06:47:21;;;;;;;3.13;1.17;;;;;;;15.00;70.57;102299.50;4887352;29;20084;-78
2022/06/13 06:49:47;;;;;;;3.80;0.70;;;;;;;15.01;69.77;102310.91;4904448;29;20036;-79
2022/06/13 06:52:12;;;;;;;4.63;0.90;;;;;;;15.00;69.46;102304.78;4910071;29;20032;-79
2022/06/13 07:00:07;;;;;;;2.55;1.00;;;;;;;14.96;68.58;102313.72;4909202;29;20063;-79
2022/06/13 07:02:33;;;;;;;4.60;1.27;;;;;;;14.96;69.01;102311.94;4914611;29;20036;-79
2022/06/13 07:05:06;;;;;;;5.03;0.93;;;;;;;14.97;69.46;102312.78;4906478;29;20138;-79
2022/06/13 07:07:31;;;;;;;5.18;1.25;;;;;;;14.94;68.99;102313.78;4912498;29;20075;-79
2022/06/13 07:09:56;;;;;;;2.97;0.93;;;;;;;14.94;69.42;102311.13;4896185;29;20047;-79
2022/06/13 07:12:22;;;;;;;3.10;1.00;;;;;;;14.96;69.61;102311.94;4906444;29;20239;-79
2022/06/13 07:14:48;;;;;;;9.40;1.67;;;;;;;14.97;70.12;102312.78;4903197;29;20123;-80
2022/06/13 07:17:14;;;;;;;3.30;1.00;;;;;;;14.98;70.08;102306.63;4911666;29;20028;-80
2022/06/13 07:19:40;;;;;;;2.55;1.00;;;;;;;15.01;69.88;102317.06;4919488;29;20055;-79
2022/06/13 07:22:07;;;;;;;14.00;1.48;;;;;;;15.03;69.92;102320.50;4901838;29;20035;-79
2022/06/13 07:24:33;;;;;;;2.55;0.80;;;;;;;15.06;70.30;102327.44;4911549;29;20040;-79
2022/06/13 07:27:00;;;;;;;3.13;1.60;;;;;;;15.03;68.94;102322.28;4908715;29;20029;-79
2022/06/13 07:29:25;;;;;;;3.83;1.20;;;;;;;15.02;68.53;102336.38;4899179;29;20123;-79
2022/06/13 07:31:55;;;;;;;4.82;1.10;;;;;;;15.02;68.49;102331.97;4913215;29;20095;-79
2022/06/13 07:34:23;;;;;;;8.75;1.70;;;;;;;15.04;69.16;102332.75;4902071;29;20228;-79
2022/06/13 07:36:51;;;;;;;2.58;0.90;;;;;;;15.06;69.98;102333.59;4903589;29;20048;-79
2022/06/13 07:39:16;;;;;;;8.00;1.23;;;;;;;15.04;69.83;102340.69;4900729;29;20044;-79
2022/06/13 07:41:42;;;;;;;4.35;1.00;;;;;;;15.04;69.53;102345.94;4891790;29;20361;-79
2022/06/13 07:44:25;;;;;;;4.63;1.10;;;;;;;15.04;70.37;102361.78;4894488;29;20407;-79
2022/06/13 07:46:51;;;;;;;3.22;1.10;;;;;;;15.05;69.75;102370.59;4906421;29;20417;-79
2022/06/13 07:49:18;;;;;;;5.10;1.35;;;;;;;15.04;68.44;102364.41;4898978;29;20028;-79
2022/06/13 07:51:43;;;;;;;2.15;0.90;;;;;;;15.03;67.52;102368.00;4901710;29;20091;-79
2022/06/13 07:54:09;;;;;;;5.88;1.20;;;;;;;15.05;67.65;102370.59;4900161;29;20264;-79
2022/06/13 07:56:36;;;;;;;2.17;0.77;;;;;;;15.07;67.71;102366.97;4910017;29;20033;-80
2022/06/13 07:59:03;;;;;;;4.63;1.05;;;;;;;15.08;67.92;102376.63;4901994;29;20231;-79
2022/06/13 08:01:29;;;;;;;2.20;0.85;;;;;;;15.09;67.83;102374.81;4918006;29;20324;-79
2022/06/13 08:03:55;;;;;;;2.45;1.05;;;;;;;15.09;67.70;102373.03;4905155;29;20024;-79
2022/06/13 08:06:22;;;;;;;5.68;1.27;;;;;;;15.09;67.38;102378.31;4911455;29;20051;-79
2022/06/13 08:08:48;;;;;;;1.35;0.75;;;;;;;15.07;67.69;102385.44;4905382;29;20059;-79
2022/06/13 08:11:18;;;;;;;4.25;0.90;;;;;;;15.08;67.34;102387.16;4900165;29;20083;-79
2022/06/13 08:13:44;;;;;;;3.92;0.80;;;;;;;15.10;67.30;102390.59;4903250;29;20095;-79
2022/06/13 08:16:10;;;;;;;2.58;1.10;;;;;;;15.11;67.38;102384.41;4913935;29;20028;-79
2022/06/13 08:18:36;;;;;;;5.88;1.08;;;;;;;15.12;68.11;102388.78;4898292;29;20075;-79
2022/06/13 08:21:03;;;;;;;1.83;0.82;;;;;;;15.13;68.15;102394.91;4902761;29;20040;-79
2022/06/13 08:23:29;;;;;;;3.42;1.20;;;;;;;15.12;67.82;102394.06;4906183;29;20048;-79
2022/06/13 08:25:54;;;;;;;5.65;1.05;;;;;;;15.13;68.01;102401.06;4910557;29;20047;-79
2022/06/13 08:28:20;;;;;;;4.82;1.10;;;;;;;15.17;67.78;102396.50;4916985;29;20047;-79
2022/06/13 08:30:56;;;;;;;3.30;1.35;;;;;;;15.19;67.67;102399.09;4901187;29;20044;-80
2022/06/13 08:33:22;;;;;;;1.95;1.05;;;;;;;15.19;67.20;102399.09;4908088;29;20040;-79
2022/06/13 08:35:48;;;;;;;2.58;0.80;;;;;;;15.19;67.44;102404.38;4907303;29;20235;-79
2022/06/13 08:38:14;;;;;;;4.03;1.35;;;;;;;15.16;67.62;102406.22;4912809;29;20096;-79
2022/06/13 08:40:59;;;;;;;5.90;1.13;;;;;;;15.18;67.33;102415.88;4908515;29;20314;-79
2022/06/13 08:44:00;;;;;;;2.42;1.00;;;;;;;15.19;67.45;102410.53;4910533;29;20359;-79
2022/06/13 08:46:25;;;;;;;4.13;1.17;;;;;;;15.19;68.36;102413.19;4892360;29;20063;-80
2022/06/13 08:49:01;;;;;;;2.67;1.17;;;;;;;15.23;68.33;102416.56;4908135;29;20033;-79
2022/06/13 08:51:47;;;;;;;2.83;1.27;;;;;;;15.23;68.16;102416.56;4906410;29;20075;-79
2022/06/13 08:54:21;;;;;;;4.80;1.25;;;;;;;15.22;67.78;102423.59;4902516;29;20348;-79
2022/06/13 08:56:47;;;;;;;3.47;1.00;;;;;;;15.24;68.28;102421.78;4908070;29;20056;-79
2022/06/13 08:59:22;;;;;;;3.40;1.25;;;;;;;15.28;68.76;102430.44;4915174;29;20080;-79
2022/06/13 09:01:52;;;;;;;4.97;1.30;;;;;;;15.32;68.73;102437.38;4922335;29;20359;-79
2022/06/13 09:04:30;;;;;;;3.88;1.20;;;;;;;15.34;69.15;102435.53;4904736;29;20031;-79
2022/06/13 09:07:05;;;;;;;2.65;1.10;;;;;;;15.34;68.67;102433.75;4912750;29;20340;-79
2022/06/13 09:09:51;;;;;;;7.18;1.08;;;;;;;15.36;67.26;102431.91;4906463;29;20268;-79
2022/06/13 09:12:37;;;;;;;4.25;1.10;;;;;;;15.39;68.54;102445.91;4906095;29;20047;-79
2022/06/13 09:15:14;;;;;;;4.75;1.15;;;;;;;15.40;67.97;102445.84;4904224;29;20071;-79
2022/06/13 09:17:43;;;;;;;3.90;1.23;;;;;;;15.40;67.68;102443.22;4904890;29;20083;-79
2022/06/13 09:20:10;;;;;;;2.90;1.08;;;;;;;15.41;67.17;102441.44;4906867;29;20595;-79
2022/06/13 09:23:00;;;;;;;2.42;1.13;;;;;;;15.44;66.84;102438.69;4908248;29;20067;-79
2022/06/13 09:25:35;;;;;;;4.07;1.33;;;;;;;15.39;67.06;102449.44;4911594;29;20036;-79
2022/06/13 09:28:10;;;;;;;3.42;1.08;;;;;;;15.38;67.88;102468.81;4914235;29;20040;-79
2022/06/13 09:30:43;;;;;;;5.50;1.60;;;;;;;15.40;67.63;102463.47;4917090;29;20323;-79
2022/06/13 09:33:14;;;;;;;7.03;1.27;;;;;;;15.40;67.71;102461.69;4909898;29;20036;-79
2022/06/13 09:35:47;;;;;;;3.58;1.10;;;;;;;15.43;67.57;102460.75;4930147;29;20103;-79
2022/06/13 09:38:22;;;;;;;8.95;1.40;;;;;;;15.43;68.29;102463.38;4915054;29;20107;-79
2022/06/13 09:41:17;;;;;;;3.78;1.60;;;;;;;15.48;67.93;102464.94;4902767;29;20063;-79
2022/06/13 09:44:14;;;;;;;2.28;0.85;;;;;;;15.53;67.78;102475.31;4910926;29;20023;-78
2022/06/13 09:46:59;;;;;;;2.67;1.30;;;;;;;15.56;68.60;102464.66;4909187;29;20382;-79
2022/06/13 09:49:36;;;;;;;2.78;1.20;;;;;;;15.58;67.11;102468.09;4909499;29;20331;-79
2022/06/13 09:52:24;;;;;;;3.58;1.05;;;;;;;15.59;68.20;102479.53;4911229;29;20028;-79
2022/06/13 09:54:55;;;;;;;3.33;1.10;;;;;;;15.59;67.28;102479.53;4911617;29;20028;-79
2022/06/13 09:57:31;;;;;;;2.70;0.80;;;;;;;15.59;66.42;102472.47;4904626;29;20103;-80
2022/06/13 10:00:16;;;;;;;1.75;0.98;;;;;;;15.59;66.60;102474.25;4905035;29;20037;-79
2022/06/13 10:03:05;;;;;;;5.15;0.90;;;;;;;15.62;65.14;102476.78;4921852;29;20224;-79
2022/06/13 10:05:37;;;;;;;2.05;0.80;;;;;;;15.67;65.36;102477.47;4923662;29;20056;-79
2022/06/13 10:08:35;;;;;;;3.13;1.02;;;;;;;15.70;65.70;102485.31;4907120;29;20099;-79
2022/06/13 10:11:28;;;;;;;5.50;0.98;;;;;;;15.68;62.91;102482.72;4904951;29;20301;-79
2022/06/13 10:14:32;;;;;;;4.47;1.40;;;;;;;15.70;63.63;102482.66;4910592;29;20237;-79
2022/06/13 10:17:13;;;;;;;4.45;1.02;;;;;;;15.66;62.72;102486.31;4867541;29;20304;-79
2022/06/13 10:19:58;;;;;;;4.82;2.08;;;;;;;15.61;62.40;102478.56;4899261;29;20413;-79
2022/06/13 10:22:29;;;;;;;3.58;1.70;;;;;;;15.58;62.40;102497.16;4908051;29;20506;-79
2022/06/13 10:25:33;;;;;;;4.40;1.80;;;;;;;15.58;62.57;102486.59;4919560;29;20039;-79
2022/06/13 10:28:07;;;;;;;4.72;1.65;;;;;;;15.60;64.26;102505.03;4913614;29;20111;-79
2022/06/13 10:30:40;;;;;;;6.20;1.20;;;;;;;15.63;65.32;102499.66;4908738;29;20398;-79
2022/06/13 10:33:11;;;;;;;2.45;1.27;;;;;;;15.65;63.86;102496.03;4907812;29;20327;-80
2022/06/13 10:36:01;;;;;;;2.75;1.02;;;;;;;15.67;61.90;102501.25;4916555;29;20023;-79
2022/06/13 10:38:58;;;;;;;5.40;1.10;;;;;;;15.70;62.69;102498.50;4902385;29;20115;-79
2022/06/13 10:41:27;;;;;;;6.85;1.42;;;;;;;15.69;62.23;102502.91;4906851;29;20513;-79
2022/06/13 10:43:55;;;;;;;3.83;0.85;;;;;;;15.71;60.87;102501.06;4917341;29;20323;-79
2022/06/13 10:46:21;;;;;;;4.82;1.50;;;;;;;15.74;60.90;102494.88;4906393;29;20036;-79
2022/06/13 10:49:13;;;;;;;4.63;1.00;;;;;;;15.76;61.41;102502.75;4913541;29;20231;-79
2022/06/13 10:51:41;;;;;;;3.08;0.90;;;;;;;15.82;61.16;102508.63;4906424;29;20059;-79
2022/06/13 10:54:10;;;;;;;;;;;;;;;15.84;61.12;102512.09;4911037;29;20453;-79
2022/06/13 10:56:42;;;;;;;4.15;1.10;;;;;;;15.83;59.68;102513.03;4909446;29;19915;-79
2022/06/13 10:59:30;;;;;;;3.45;0.80;;;;;;;15.86;61.83;102496.19;4906123;29;20380;-79
2022/06/13 11:02:00;;;;;;;2.45;0.80;;;;;;;15.88;63.32;102508.44;4902360;29;20369;-79
2022/06/13 11:04:33;;;;;;;2.90;1.15;;;;;;;15.90;61.43;102509.25;4912950;29;20351;-79
2022/06/13 11:07:04;;;;;;;1.98;0.90;;;;;;;15.92;61.63;102514.47;4918221;29;20210;-79
2022/06/13 11:09:47;;;;;;;8.48;1.30;;;;;;;15.94;60.81;102512.63;4915966;29;20347;-79
2022/06/13 11:12:26;;;;;;;4.28;1.35;;;;;;;15.96;60.50;102515.22;4908953;29;20044;-79
2022/06/13 11:23:20;;;;;;;9.02;1.95;;;;;;;15.99;61.15;102521.25;4912318;29;20092;-79
2022/06/13 11:25:55;;;;;;;3.78;1.35;;;;;;;16.01;60.55;102534.38;4897540;29;20064;-79
2022/06/13 11:28:24;;;;;;;4.68;1.20;;;;;;;16.01;59.05;102526.47;4916434;29;20036;-79
2022/06/13 11:31:13;;;;;;;7.43;1.55;;;;;;;16.01;59.57;102527.34;4887469;29;20059;-79
2022/06/13 11:33:40;;;;;;;6.88;1.20;;;;;;;15.99;60.86;102531.81;4920045;29;20046;-79
2022/06/13 11:36:14;;;;;;;4.80;1.70;;;;;;;15.99;60.25;102533.59;4903049;29;20086;-80
2022/06/13 11:39:00;;;;;;;3.97;1.00;;;;;;;15.98;60.39;102532.72;4913451;29;20067;-79
2022/06/13 11:41:32;;;;;;;6.68;1.35;;;;;;;16.00;61.67;102530.03;4910341;29;20028;-79
2022/06/13 11:44:04;;;;;;;6.18;1.63;;;;;;;16.03;61.03;102522.00;4907156;29;20043;-79
2022/06/13 11:46:37;;;;;;;5.25;1.40;;;;;;;16.06;61.40;102530.69;4903013;29;20307;-79
2022/06/13 11:49:21;;;;;;;6.32;1.45;;;;;;;16.11;61.25;102534.00;4903657;29;20091;-79
2022/06/13 11:52:06;;;;;;;4.38;1.00;;;;;;;16.14;62.37;102538.31;4916513;29;20242;-79
2022/06/13 11:54:52;;;;;;;6.13;1.20;;;;;;;16.17;61.48;102529.41;4911141;29;20104;-79
2022/06/13 11:57:32;;;;;;;3.95;1.40;;;;;;;16.20;60.71;102535.44;4899253;29;20051;-79
2022/06/13 12:00:22;;;;;;;7.15;1.40;;;;;;;16.18;60.31;102537.28;4907202;29;20079;-79
2022/06/13 12:02:50;;;;;;;8.30;1.20;;;;;;;16.19;60.10;102528.44;4901740;29;20395;-79
2022/06/13 12:05:27;;;;;;;3.58;1.02;;;;;;;16.20;61.21;102532.78;4899014;29;20426;-79
2022/06/13 12:08:16;;;;;;;6.13;1.35;;;;;;;16.23;60.29;102534.47;4885582;29;20040;-79
2022/06/13 12:10:54;;;;;;;4.13;1.00;;;;;;;16.27;60.95;102536.09;4888290;29;20041;-79
2022/06/13 12:13:23;;;;;;;6.90;1.75;;;;;;;16.29;62.07;102537.72;4889736;29;20036;-79